Time;durP1;ratioP1;P1;durP2;ratioP2;P2;SDS_P1;SDS_P2;PMS_P1;PMS_P2;Temp;Humidity;BMP_temperature;BMP_pressure;BME280_temperature;BME280_humidity;BME280_pressure;Samples;Min_cycle;Max_cycle;Signal;HPM_P1;HPM_P2
2021/09/07 00:01:35;;;;;;;11.47;7.67;;;;;;;15.90;89.50;101647.72;5015742;28;20196;-67
2021/09/07 00:04:01;;;;;;;13.83;8.23;;;;;;;15.97;89.40;101644.63;5015852;28;20192;-66
2021/09/07 00:06:26;;;;;;;14.20;7.67;;;;;;;16.02;88.61;101645.25;5033526;28;20597;-66
2021/09/07 00:08:51;;;;;;;11.60;7.50;;;;;;;16.05;89.00;101639.66;5033670;28;20175;-67
2021/09/07 00:11:16;;;;;;;9.83;8.00;;;;;;;16.05;89.30;101637.84;5033636;28;20267;-67
2021/09/07 00:13:43;;;;;;;15.87;8.70;;;;;;;16.04;89.25;101643.31;5033409;28;20212;-67
2021/09/07 00:16:08;;;;;;;13.00;8.57;;;;;;;15.98;89.17;101643.66;5035438;28;20184;-66
2021/09/07 00:18:33;;;;;;;11.90;7.77;;;;;;;15.98;89.71;101644.53;5033741;28;20242;-67
2021/09/07 00:20:59;;;;;;;13.43;7.47;;;;;;;15.94;90.05;101634.94;5033372;28;20199;-67
2021/09/07 00:23:24;;;;;;;15.00;8.13;;;;;;;15.86;90.64;101642.63;5015663;28;20196;-67
2021/09/07 00:25:49;;;;;;;10.63;7.83;;;;;;;15.84;91.18;101634.66;5033209;28;20265;-67
2021/09/07 00:28:14;;;;;;;12.07;8.33;;;;;;;15.78;91.41;101643.09;5033384;28;20184;-67
2021/09/07 00:30:40;;;;;;;11.53;8.20;;;;;;;15.70;92.22;101640.03;5033260;28;20172;-66
2021/09/07 00:33:08;;;;;;;11.60;7.27;;;;;;;15.58;92.62;101636.25;5033078;28;20208;-66
2021/09/07 00:35:33;;;;;;;17.77;7.27;;;;;;;15.52;93.46;101638.41;5033162;28;20225;-68
2021/09/07 00:37:59;;;;;;;13.20;8.33;;;;;;;15.51;93.71;101639.38;5033129;28;20192;-67
2021/09/07 00:40:24;;;;;;;15.20;8.37;;;;;;;15.50;94.15;101640.34;5032999;28;20200;-68
2021/09/07 00:42:49;;;;;;;12.40;7.57;;;;;;;15.49;94.00;101641.28;5032974;28;20553;-68
2021/09/07 00:45:14;;;;;;;9.60;7.30;;;;;;;15.50;93.75;101643.03;5033108;28;20634;-67
2021/09/07 00:47:41;;;;;;;10.80;7.67;;;;;;;15.48;93.86;101658.38;5033452;28;20172;-67
2021/09/07 00:50:07;;;;;;;9.90;7.37;;;;;;;15.38;94.38;101650.03;5033200;28;20172;-67
2021/09/07 00:52:36;;;;;;;13.70;7.90;;;;;;;15.31;95.30;101649.53;5033413;28;20204;-67
2021/09/07 00:55:02;;;;;;;11.00;8.07;;;;;;;15.29;95.63;101645.19;5015642;28;20546;-67
2021/09/07 00:57:27;;;;;;;13.17;7.17;;;;;;;15.25;95.75;101644.50;5033126;28;20192;-67
2021/09/07 00:59:53;;;;;;;13.57;8.13;;;;;;;15.18;96.33;101647.63;5033011;28;20669;-67
2021/09/07 01:02:19;;;;;;;15.70;7.93;;;;;;;15.14;97.35;101640.72;5015113;28;20179;-66
2021/09/07 01:04:44;;;;;;;12.53;8.03;;;;;;;15.20;96.69;101645.72;5032699;28;20204;-66
2021/09/07 01:07:10;;;;;;;16.07;8.07;;;;;;;15.13;97.36;101647.03;5032726;28;20180;-67
2021/09/07 01:09:36;;;;;;;13.57;8.20;;;;;;;15.13;97.70;101647.91;5015428;28;20538;-67
2021/09/07 01:12:01;;;;;;;10.97;7.67;;;;;;;15.19;96.83;101647.53;5017215;28;20572;-67
2021/09/07 01:14:32;;;;;;;13.47;8.10;;;;;;;15.16;97.39;101645.03;5036577;28;20242;-67
2021/09/07 01:16:57;;;;;;;13.20;8.10;;;;;;;15.07;97.95;101648.28;5036855;28;20176;-66
2021/09/07 01:19:23;;;;;;;11.80;7.90;;;;;;;15.04;98.27;101645.78;5036653;28;20183;-66
2021/09/07 01:21:48;;;;;;;11.30;8.00;;;;;;;15.01;98.37;101643.25;5036657;28;20650;-67
2021/09/07 01:24:18;;;;;;;13.40;8.07;;;;;;;14.93;99.26;101630.28;5036438;28;20203;-67
2021/09/07 01:26:43;;;;;;;11.37;7.50;;;;;;;14.86;99.58;101644.13;5019093;28;20526;-67
2021/09/07 01:29:09;;;;;;;9.60;7.93;;;;;;;14.83;100.00;101633.56;5036406;28;20183;-67
2021/09/07 01:31:34;;;;;;;10.43;8.67;;;;;;;14.84;100.00;101638.00;5036574;28;20186;-67
2021/09/07 01:33:59;;;;;;;13.57;8.83;;;;;;;14.87;99.49;101624.41;5036592;28;20678;-67
2021/09/07 01:36:25;;;;;;;13.70;8.10;;;;;;;14.84;99.94;101625.41;5036547;28;20180;-66
2021/09/07 01:38:50;;;;;;;16.07;9.63;;;;;;;14.85;100.00;101626.28;5036228;28;20248;-66
2021/09/07 01:41:15;;;;;;;16.40;9.43;;;;;;;14.79;100.00;101634.72;5036378;28;20196;-66
2021/09/07 01:43:47;;;;;;;18.23;9.97;;;;;;;14.76;100.00;101632.19;5036327;28;20196;-67
2021/09/07 01:46:12;;;;;;;17.63;10.13;;;;;;;14.72;100.00;101634.19;5036285;28;20233;-67
2021/09/07 01:48:38;;;;;;;14.73;10.87;;;;;;;14.69;100.00;101642.44;5036386;28;20626;-67
2021/09/07 01:51:03;;;;;;;19.53;11.30;;;;;;;14.66;100.00;101631.88;5036453;28;20175;-66
2021/09/07 01:53:28;;;;;;;14.03;10.67;;;;;;;14.60;100.00;101633.09;5036313;28;20232;-66
2021/09/07 01:55:54;;;;;;;15.93;10.50;;;;;;;14.59;100.00;101631.34;5036154;28;20691;-66
2021/09/07 01:58:19;;;;;;;17.50;10.80;;;;;;;14.56;100.00;101639.59;5036159;28;20181;-66
2021/09/07 02:00:44;;;;;;;15.63;11.10;;;;;;;14.57;100.00;101635.94;5035867;28;20207;-66
2021/09/07 02:03:10;;;;;;;14.20;10.57;;;;;;;14.55;100.00;101637.00;5035729;28;20184;-67
2021/09/07 02:05:35;;;;;;;18.87;11.80;;;;;;;14.46;100.00;101642.88;5017931;28;20637;-66
2021/09/07 02:08:00;;;;;;;16.23;11.57;;;;;;;14.41;100.00;101640.41;5035698;28;20200;-66
2021/09/07 02:10:26;;;;;;;17.37;11.77;;;;;;;14.39;100.00;101639.63;5035710;28;20176;-67
2021/09/07 02:12:51;;;;;;;18.03;12.13;;;;;;;14.43;100.00;101640.34;5035532;28;20657;-67
2021/09/07 02:15:16;;;;;;;27.63;12.07;;;;;;;14.45;100.00;101641.13;5035577;28;20183;-66
2021/09/07 02:17:42;;;;;;;18.77;12.90;;;;;;;14.41;100.00;101640.41;5035471;28;20226;-66
2021/09/07 02:20:09;;;;;;;19.00;12.07;;;;;;;14.39;100.00;101637.81;5035575;28;20247;-67
2021/09/07 02:22:34;;;;;;;16.53;11.47;;;;;;;14.36;100.00;101642.50;5034827;28;20173;-66
2021/09/07 02:24:59;;;;;;;16.03;11.93;;;;;;;14.33;100.00;101632.78;5035844;28;20177;-66
2021/09/07 02:27:24;;;;;;;18.57;11.53;;;;;;;14.26;100.00;101636.78;5035612;28;20184;-67
2021/09/07 02:29:50;;;;;;;21.53;12.90;;;;;;;14.24;100.00;101635.13;5035317;28;20164;-67
2021/09/07 02:32:15;;;;;;;17.50;11.53;;;;;;;14.17;100.00;101637.28;5035475;28;20207;-67
2021/09/07 02:34:41;;;;;;;20.83;12.57;;;;;;;14.19;100.00;101626.47;5035104;28;20535;-67
2021/09/07 02:37:06;;;;;;;20.33;12.40;;;;;;;14.18;100.00;101630.09;5035085;28;20183;-67
2021/09/07 02:39:32;;;;;;;18.50;12.40;;;;;;;14.21;100.00;101621.88;5036174;28;20247;-68
2021/09/07 02:41:57;;;;;;;19.73;12.83;;;;;;;14.19;100.00;101629.16;5036708;28;20642;-67
2021/09/07 02:44:22;;;;;;;18.93;12.63;;;;;;;14.19;100.00;101618.41;5036123;28;20605;-67
2021/09/07 02:46:48;;;;;;;18.17;13.13;;;;;;;14.18;100.00;101624.72;5036008;28;20181;-67
2021/09/07 02:49:13;;;;;;;20.47;13.27;;;;;;;14.14;100.00;101615.13;5035306;28;20187;-67
2021/09/07 02:51:39;;;;;;;18.93;13.20;;;;;;;14.13;100.00;101625.00;5035020;28;20578;-67
2021/09/07 02:54:04;;;;;;;18.93;13.10;;;;;;;14.14;100.00;101620.50;5034865;28;20559;-67
2021/09/07 02:56:30;;;;;;;18.87;13.10;;;;;;;14.16;100.00;101613.22;5035337;28;20255;-67
2021/09/07 02:58:55;;;;;;;21.57;13.50;;;;;;;14.21;100.00;101614.69;5035037;28;20695;-67
2021/09/07 03:01:20;;;;;;;17.83;13.83;;;;;;;14.23;100.00;101611.91;5034707;28;20223;-67
2021/09/07 03:03:46;;;;;;;19.00;13.40;;;;;;;14.21;100.00;101613.81;5034573;28;20566;-67
2021/09/07 03:06:11;;;;;;;19.00;13.07;;;;;;;14.17;100.00;101607.75;5035433;28;20169;-67
2021/09/07 03:08:36;;;;;;;18.20;12.47;;;;;;;14.16;100.00;101605.16;5035152;28;20226;-67
2021/09/07 03:11:02;;;;;;;18.37;12.90;;;;;;;14.15;100.00;101606.13;5034549;28;20172;-67
2021/09/07 03:13:27;;;;;;;18.13;13.17;;;;;;;14.14;100.00;101607.06;5034396;28;20258;-67
2021/09/07 03:15:52;;;;;;;19.67;13.70;;;;;;;14.19;100.00;101605.00;5017408;28;20173;-68
2021/09/07 03:18:18;;;;;;;24.37;13.60;;;;;;;14.14;100.00;101609.75;5034640;28;20542;-66
2021/09/07 03:20:43;;;;;;;20.97;13.67;;;;;;;14.12;100.00;101607.13;5034674;28;20199;-67
2021/09/07 03:23:08;;;;;;;20.73;13.20;;;;;;;14.09;100.00;101608.16;5034691;28;20207;-67
2021/09/07 03:25:34;;;;;;;33.20;21.03;;;;;;;14.07;100.00;101618.13;5034670;28;20216;-66
2021/09/07 03:27:59;;;;;;;23.37;14.50;;;;;;;14.03;100.00;101613.00;5034311;28;20176;-68
2021/09/07 03:30:24;;;;;;;20.13;13.37;;;;;;;13.97;100.00;101618.72;5034304;28;20258;-67
2021/09/07 03:32:50;;;;;;;21.63;14.07;;;;;;;13.97;100.00;101630.31;5034357;28;20208;-67
2021/09/07 03:35:16;;;;;;;17.43;13.00;;;;;;;13.99;100.00;101630.22;5033447;28;20174;-67
2021/09/07 03:37:42;;;;;;;19.40;13.97;;;;;;;13.94;100.00;101632.28;5034298;28;20660;-67
2021/09/07 03:40:08;;;;;;;20.97;13.37;;;;;;;13.89;100.00;101631.69;5033847;28;20225;-67
2021/09/07 03:42:34;;;;;;;23.70;14.57;;;;;;;13.87;100.00;101633.59;5033966;28;20218;-67
2021/09/07 03:45:00;;;;;;;19.43;12.97;;;;;;;13.83;100.00;101632.88;5034207;28;20173;-66
2021/09/07 03:47:25;;;;;;;18.90;13.90;;;;;;;13.84;100.00;101629.25;5033971;28;20256;-67
2021/09/07 03:49:51;;;;;;;21.00;14.00;;;;;;;13.73;100.00;101632.50;5033966;28;20168;-67
2021/09/07 03:52:16;;;;;;;19.90;14.23;;;;;;;13.77;100.00;101630.53;5034809;28;20180;-68
2021/09/07 03:54:41;;;;;;;24.23;13.57;;;;;;;13.81;100.00;101634.78;5034148;28;20197;-67
2021/09/07 03:57:06;;;;;;;22.67;13.67;;;;;;;13.87;100.00;101629.09;5036122;28;20168;-67
2021/09/07 03:59:32;;;;;;;22.80;13.73;;;;;;;13.80;100.00;101635.72;5036155;28;20541;-67
2021/09/07 04:01:57;;;;;;;19.43;13.33;;;;;;;13.86;100.00;101638.09;5034135;28;20172;-68
2021/09/07 04:04:25;;;;;;;18.97;13.47;;;;;;;13.87;100.00;101638.94;5034352;28;20198;-67
2021/09/07 04:06:50;;;;;;;24.73;13.37;;;;;;;13.83;100.00;101643.63;5036418;28;20175;-67
2021/09/07 04:09:15;;;;;;;18.47;13.33;;;;;;;13.83;100.00;101643.63;5035104;28;20222;-67
2021/09/07 04:11:41;;;;;;;17.57;13.40;;;;;;;13.85;100.00;101640.84;5034059;28;20172;-68
2021/09/07 04:14:06;;;;;;;23.13;14.63;;;;;;;13.84;100.00;101639.13;5034000;28;20208;-67
2021/09/07 04:16:31;;;;;;;19.80;13.27;;;;;;;13.88;100.00;101641.56;5039338;28;20176;-67
2021/09/07 04:18:57;;;;;;;19.00;13.47;;;;;;;13.88;100.00;101644.22;5034144;28;20188;-67
2021/09/07 04:21:22;;;;;;;21.93;13.37;;;;;;;13.90;100.00;101647.69;5033775;28;20196;-67
2021/09/07 04:23:47;;;;;;;19.63;13.07;;;;;;;13.91;100.00;101653.94;5033727;28;20262;-67
2021/09/07 04:26:13;;;;;;;20.97;12.53;;;;;;;13.93;100.00;101654.72;5035546;28;20585;-67
2021/09/07 04:28:38;;;;;;;19.53;13.40;;;;;;;13.94;100.00;101656.44;5034231;28;20204;-67
2021/09/07 04:31:03;;;;;;;18.27;13.30;;;;;;;13.96;100.00;101668.84;5033593;28;20200;-67
2021/09/07 04:33:29;;;;;;;17.77;13.00;;;;;;;13.97;100.00;101670.56;5033296;28;20188;-67
2021/09/07 04:35:54;;;;;;;20.83;13.10;;;;;;;13.93;100.00;101668.13;5033280;28;20363;-67
2021/09/07 04:38:19;;;;;;;21.17;12.60;;;;;;;13.90;100.00;101668.31;5033431;28;20169;-69
2021/09/07 04:40:44;;;;;;;21.00;13.03;;;;;;;13.85;100.00;101671.25;5033601;28;20195;-68
2021/09/07 04:43:10;;;;;;;22.37;13.67;;;;;;;13.80;100.00;101673.31;5015754;28;20282;-67
2021/09/07 04:45:35;;;;;;;22.27;14.17;;;;;;;13.77;100.00;101663.59;5034824;28;20177;-68
2021/09/07 04:48:00;;;;;;;18.47;12.80;;;;;;;13.80;100.00;101669.75;5038635;28;20172;-70
2021/09/07 04:50:26;;;;;;;18.30;11.87;;;;;;;13.88;100.00;101663.03;5035600;28;20168;-70
2021/09/07 04:52:51;;;;;;;23.23;13.30;;;;;;;13.95;100.00;101669.78;5015601;28;20176;-72
2021/09/07 04:55:16;;;;;;;18.10;11.90;;;;;;;14.03;100.00;101672.06;5033799;28;20199;-67
2021/09/07 04:57:42;;;;;;;19.37;12.70;;;;;;;14.09;100.00;101666.34;5033228;28;20180;-68
2021/09/07 05:00:08;;;;;;;22.73;12.73;;;;;;;14.15;100.00;101670.53;5033042;28;20196;-68
2021/09/07 05:02:34;;;;;;;20.87;12.57;;;;;;;14.17;100.00;101668.63;5033138;28;20180;-68
2021/09/07 05:05:03;;;;;;;18.33;12.67;;;;;;;14.20;100.00;101657.72;5033082;28;20207;-68
2021/09/07 05:07:28;;;;;;;18.90;12.77;;;;;;;14.21;100.00;101667.50;5032888;28;20184;-68
2021/09/07 05:09:54;;;;;;;16.90;12.00;;;;;;;14.26;100.00;101662.75;5032762;28;20165;-69
2021/09/07 05:12:20;;;;;;;17.57;12.50;;;;;;;14.33;100.00;101669.50;5033139;28;20176;-68
2021/09/07 05:14:45;;;;;;;17.47;12.30;;;;;;;14.35;100.00;101662.25;5087485;22;20596;-70
2021/09/07 05:17:11;;;;;;;17.47;12.37;;;;;;;14.34;100.00;101663.19;5072474;28;20167;-68
2021/09/07 05:19:36;;;;;;;22.27;13.37;;;;;;;14.38;100.00;101659.38;5072466;28;20237;-68
2021/09/07 05:22:02;;;;;;;17.23;12.67;;;;;;;14.38;100.00;101675.50;5072847;28;20186;-68
2021/09/07 05:24:27;;;;;;;21.07;13.47;;;;;;;14.42;100.00;101669.00;5072932;28;20198;-68
2021/09/07 05:26:52;;;;;;;19.20;12.23;;;;;;;14.44;100.00;101674.31;5072454;28;20174;-68
2021/09/07 05:29:18;;;;;;;25.30;13.77;;;;;;;14.48;100.00;101668.69;5072293;28;20325;-69
2021/09/07 05:31:43;;;;;;;21.57;12.70;;;;;;;14.49;100.00;101675.78;5072367;28;20664;-69
2021/09/07 05:34:08;;;;;;;18.83;13.60;;;;;;;14.51;100.00;101675.72;5072430;28;20241;-69
2021/09/07 05:36:33;;;;;;;28.50;12.73;;;;;;;14.53;100.00;101671.13;5072462;28;20175;-69
2021/09/07 05:38:59;;;;;;;23.77;13.37;;;;;;;14.62;100.00;101675.97;5072435;28;20225;-69
2021/09/07 05:41:24;;;;;;;18.87;12.63;;;;;;;14.60;100.00;101673.38;5072839;28;20194;-70
2021/09/07 05:43:49;;;;;;;18.33;12.77;;;;;;;14.61;100.00;101677.81;5072894;28;20698;-69
2021/09/07 05:46:15;;;;;;;21.30;13.07;;;;;;;14.62;100.00;101674.16;5072365;28;20174;-72
2021/09/07 05:48:40;;;;;;;21.93;13.83;;;;;;;14.66;100.00;101677.53;5055987;28;20167;-76
2021/09/07 05:51:52;;;;;;;24.30;13.77;;;;;;;14.68;100.00;101684.56;5055516;28;20193;-76
2021/09/07 05:54:17;;;;;;;25.20;15.17;;;;;;;14.74;100.00;101683.34;5054863;28;20275;-76
2021/09/07 05:56:43;;;;;;;20.13;13.83;;;;;;;14.72;100.00;101681.69;5038284;28;20170;-75
2021/09/07 05:59:08;;;;;;;25.57;15.00;;;;;;;14.75;100.00;101686.91;5076136;28;20628;-76
2021/09/07 06:01:35;;;;;;;22.23;14.50;;;;;;;14.68;100.00;101689.94;5058838;28;20202;-76
2021/09/07 06:04:00;;;;;;;25.53;15.70;;;;;;;14.69;100.00;101688.97;5041975;28;20663;-76
2021/09/07 06:06:26;;;;;;;23.70;16.17;;;;;;;14.72;100.00;101692.44;5058469;28;20201;-76
2021/09/07 06:08:51;;;;;;;24.70;15.60;;;;;;;14.78;100.00;101697.47;5058075;28;20163;-76
2021/09/07 06:11:16;;;;;;;34.30;18.60;;;;;;;14.74;100.00;101696.78;5058671;28;20175;-77
2021/09/07 06:13:42;;;;;;;28.07;18.30;;;;;;;14.72;100.00;101698.69;5076075;28;20572;-76
2021/09/07 06:16:07;;;;;;;31.83;19.10;;;;;;;14.61;100.00;101699.31;5076231;28;20221;-76
2021/09/07 06:18:32;;;;;;;31.93;19.17;;;;;;;14.69;100.00;101702.41;5076500;28;20171;-76
2021/09/07 06:20:58;;;;;;;29.73;20.80;;;;;;;14.83;100.00;101695.38;5077006;28;20294;-76
2021/09/07 06:23:23;;;;;;;37.57;21.37;;;;;;;14.83;100.00;101706.13;5058035;28;20198;-76
2021/09/07 06:25:48;;;;;;;33.30;20.53;;;;;;;14.94;100.00;101703.72;5075620;28;20171;-76
2021/09/07 06:28:13;;;;;;;33.77;20.13;;;;;;;14.92;100.00;101711.00;5057740;28;20193;-76
2021/09/07 06:30:39;;;;;;;33.87;20.90;;;;;;;14.88;100.00;101715.69;5058017;28;20170;-76
2021/09/07 06:33:04;;;;;;;36.93;22.23;;;;;;;14.83;100.00;101714.19;5057693;28;20591;-76
2021/09/07 06:35:30;;;;;;;33.03;22.40;;;;;;;14.88;100.00;101722.88;5058050;28;20193;-76
2021/09/07 06:37:55;;;;;;;35.77;22.20;;;;;;;14.91;100.00;101720.03;5063263;28;20185;-76
2021/09/07 06:40:21;;;;;;;37.17;21.80;;;;;;;15.19;100.00;101721.97;5047409;28;20199;-76
2021/09/07 06:42:47;;;;;;;33.10;20.07;;;;;;;15.02;100.00;101723.81;5067059;28;20216;-77
2021/09/07 06:45:12;;;;;;;31.33;21.17;;;;;;;15.27;100.00;101727.78;5059629;28;20237;-77
2021/09/07 06:47:38;;;;;;;35.50;21.03;;;;;;;15.25;100.00;101730.56;5057191;28;20236;-77
2021/09/07 06:50:05;;;;;;;34.60;22.10;;;;;;;15.11;100.00;101727.78;5056754;28;20195;-77
2021/09/07 06:52:30;;;;;;;36.80;20.80;;;;;;;15.23;100.00;101724.38;5040662;28;20582;-77
2021/09/07 06:54:55;;;;;;;37.77;21.77;;;;;;;15.35;100.00;101730.03;5040324;28;20195;-77
2021/09/07 06:57:21;;;;;;;33.33;20.97;;;;;;;15.18;100.00;101729.16;5056782;28;20229;-77
2021/09/07 06:59:46;;;;;;;35.07;21.83;;;;;;;15.51;100.00;101731.72;5074453;28;20674;-76
2021/09/07 07:02:11;;;;;;;31.50;20.53;;;;;;;15.37;100.00;101738.88;5074692;28;20667;-76
2021/09/07 07:04:36;;;;;;;33.50;22.53;;;;;;;14.83;100.00;101741.06;5074545;28;20679;-77
2021/09/07 07:07:02;;;;;;;35.73;21.30;;;;;;;14.87;100.00;101734.59;5056907;28;20174;-76
2021/09/07 07:09:27;;;;;;;38.87;21.40;;;;;;;14.99;100.00;101741.94;5057079;28;20265;-76
2021/09/07 07:11:52;;;;;;;33.13;20.83;;;;;;;14.96;100.00;101740.31;5056995;28;20658;-76
2021/09/07 07:14:21;;;;;;;33.37;20.83;;;;;;;15.51;100.00;101744.28;5074141;28;20206;-76
2021/09/07 07:16:47;;;;;;;34.87;20.00;;;;;;;15.65;100.00;101755.16;5056902;28;20223;-76
2021/09/07 07:19:13;;;;;;;34.63;21.00;;;;;;;15.68;100.00;101746.03;5040046;28;20167;-76
2021/09/07 07:21:38;;;;;;;35.07;21.33;;;;;;;15.87;100.00;101750.19;5056598;28;20194;-76
2021/09/07 07:24:03;;;;;;;28.10;17.33;;;;;;;16.35;100.00;101750.84;5056365;28;20199;-76
2021/09/07 07:26:29;;;;;;;36.57;19.47;;;;;;;16.20;99.88;101749.09;5056365;28;20190;-76
2021/09/07 07:28:55;;;;;;;24.30;16.63;;;;;;;16.29;100.00;101759.28;5059428;28;20185;-77
2021/09/07 07:31:20;;;;;;;30.57;18.40;;;;;;;16.25;100.00;101750.53;5078826;28;20171;-77
2021/09/07 07:33:45;;;;;;;28.00;17.77;;;;;;;16.37;100.00;101750.75;5062203;28;20197;-77
2021/09/07 07:36:11;;;;;;;29.80;17.43;;;;;;;16.50;98.09;101749.03;5058503;28;20261;-77
2021/09/07 07:38:36;;;;;;;23.53;15.33;;;;;;;16.73;99.12;101761.06;5075492;28;20224;-76
2021/09/07 07:41:02;;;;;;;27.40;17.77;;;;;;;17.01;94.65;101761.00;5056378;28;20194;-76
2021/09/07 07:43:35;;;;;;;27.57;17.37;;;;;;;17.02;95.27;101762.72;5056218;28;20628;-76
2021/09/07 07:46:01;;;;;;;25.13;17.27;;;;;;;16.43;98.41;101759.31;5074567;28;20205;-76
2021/09/07 07:48:26;;;;;;;23.03;16.10;;;;;;;16.72;97.79;101764.72;5074053;28;20205;-77
2021/09/07 07:50:51;;;;;;;30.00;17.00;;;;;;;16.90;94.92;101760.84;5039534;28;20489;-77
2021/09/07 07:53:17;;;;;;;28.37;17.70;;;;;;;16.57;97.31;101755.75;5073795;28;20667;-76
2021/09/07 07:55:42;;;;;;;24.60;15.57;;;;;;;16.79;96.82;101760.69;5056160;28;20269;-77
2021/09/07 07:58:07;;;;;;;26.37;16.27;;;;;;;17.06;95.75;101760.69;5075008;28;20189;-76
2021/09/07 08:00:32;;;;;;;24.60;16.00;;;;;;;17.16;95.00;101765.41;5073679;28;20591;-76
2021/09/07 08:02:58;;;;;;;24.50;17.17;;;;;;;17.10;93.00;101760.44;5073400;28;20186;-76
2021/09/07 08:05:23;;;;;;;22.67;14.63;;;;;;;17.69;92.20;101762.81;5056179;28;20537;-77
2021/09/07 08:07:48;;;;;;;24.90;15.63;;;;;;;17.92;89.56;101759.41;5073972;28;20224;-76
2021/09/07 08:10:14;;;;;;;20.20;15.03;;;;;;;18.18;86.60;101762.97;5074606;28;20197;-76
2021/09/07 08:12:39;;;;;;;21.10;13.83;;;;;;;18.10;87.04;101760.81;5056229;28;20195;-77
2021/09/07 08:15:05;;;;;;;22.20;14.27;;;;;;;17.53;88.33;101770.19;5073761;28;20249;-76
2021/09/07 08:17:30;;;;;;;19.77;12.10;;;;;;;17.73;88.24;101765.19;5056124;28;20228;-77
2021/09/07 08:19:55;;;;;;;18.53;13.13;;;;;;;17.93;87.40;101771.94;5073335;28;20296;-76
2021/09/07 08:22:22;;;;;;;25.30;13.60;;;;;;;17.79;86.84;101775.56;5055979;28;20509;-76
2021/09/07 08:24:49;;;;;;;18.90;12.27;;;;;;;18.10;87.24;101785.13;5056096;28;20259;-76
2021/09/07 08:27:14;;;;;;;19.13;13.70;;;;;;;18.66;83.38;101783.00;5073977;28;20175;-77
2021/09/07 08:29:39;;;;;;;21.07;12.80;;;;;;;18.64;82.50;101790.38;5073625;28;20171;-76
2021/09/07 08:32:05;;;;;;;16.00;11.60;;;;;;;18.57;83.02;101797.13;5073512;28;20171;-76
2021/09/07 08:34:30;;;;;;;17.97;12.13;;;;;;;18.33;84.00;101798.88;5073483;28;20664;-76
2021/09/07 08:36:56;;;;;;;21.40;13.77;;;;;;;17.92;86.64;101804.47;5055684;28;20175;-76
2021/09/07 08:39:21;;;;;;;20.07;13.30;;;;;;;18.84;82.21;101797.03;5073516;28;20269;-77
2021/09/07 08:41:47;;;;;;;21.87;13.43;;;;;;;18.99;81.03;101795.94;5073813;28;20195;-77
2021/09/07 08:44:15;;;;;;;18.57;12.90;;;;;;;19.09;80.52;101800.66;5074012;28;20206;-77
2021/09/07 08:46:41;;;;;;;20.37;12.83;;;;;;;18.58;82.32;101790.75;5055715;28;20173;-77
2021/09/07 08:49:06;;;;;;;16.57;11.90;;;;;;;18.91;81.73;101790.19;5073279;28;20175;-77
2021/09/07 08:51:31;;;;;;;17.07;12.70;;;;;;;18.95;80.75;101790.84;5055574;28;20174;-77
2021/09/07 08:53:57;;;;;;;15.30;11.70;;;;;;;19.51;78.29;101792.06;5073628;28;20273;-77
2021/09/07 08:56:22;;;;;;;16.23;10.93;;;;;;;19.19;79.10;101790.88;5074007;28;20641;-77
2021/09/07 08:58:47;;;;;;;16.27;10.37;;;;;;;19.49;78.26;101790.44;5056197;28;20185;-77
2021/09/07 09:01:17;;;;;;;15.63;10.00;;;;;;;19.78;77.47;101793.69;5073214;28;20277;-77
2021/09/07 09:03:45;;;;;;;16.50;10.40;;;;;;;20.08;75.98;101787.75;5038424;28;20281;-76
2021/09/07 09:06:10;;;;;;;17.60;11.23;;;;;;;19.95;75.13;101793.25;5055997;28;20224;-76
2021/09/07 09:08:37;;;;;;;19.33;11.20;;;;;;;19.90;75.07;101788.19;5057088;28;20581;-77
2021/09/07 09:11:11;;;;;;;13.53;10.30;;;;;;;20.01;74.66;101786.47;5065309;28;20163;-76
2021/09/07 09:13:44;;;;;;;16.97;10.13;;;;;;;19.98;74.13;101801.13;5065332;28;20236;-76
2021/09/07 09:16:09;;;;;;;18.10;11.23;;;;;;;19.22;77.62;101793.38;5059645;28;20156;-76
2021/09/07 09:18:40;;;;;;;15.57;9.93;;;;;;;19.46;77.81;101787.97;5073607;28;20178;-76
2021/09/07 09:21:34;;;;;;;14.90;10.30;;;;;;;19.57;77.07;101790.75;5055344;28;20699;-77
2021/09/07 09:24:20;;;;;;;17.20;12.00;;;;;;;19.02;77.69;101794.84;5038140;28;20202;-77
2021/09/07 09:26:59;;;;;;;16.20;11.50;;;;;;;20.04;75.44;101797.94;5038308;28;20193;-77
2021/09/07 09:29:28;;;;;;;14.97;10.30;;;;;;;20.12;74.83;101795.53;5054977;28;20174;-77
2021/09/07 09:32:00;;;;;;;16.43;11.40;;;;;;;19.86;75.64;101783.13;5054850;28;20225;-77
2021/09/07 09:34:26;;;;;;;13.60;10.40;;;;;;;19.65;76.26;101782.91;5076895;28;20201;-77
2021/09/07 09:37:02;;;;;;;19.23;13.73;;;;;;;19.39;77.31;101775.88;5076788;28;20636;-77
2021/09/07 09:39:39;;;;;;;15.80;10.73;;;;;;;19.46;77.99;101785.25;5076770;28;20194;-77
2021/09/07 09:42:05;;;;;;;12.30;9.40;;;;;;;20.40;75.19;101782.53;5077095;28;20497;-77
2021/09/07 09:44:30;;;;;;;12.87;9.17;;;;;;;19.62;73.54;101780.44;5076640;28;20215;-77
2021/09/07 09:46:55;;;;;;;17.77;8.90;;;;;;;19.61;75.19;101776.88;5058677;28;20174;-77
2021/09/07 09:49:22;;;;;;;13.43;8.13;;;;;;;19.96;74.30;101778.72;5058396;28;20179;-77
2021/09/07 09:51:48;;;;;;;15.57;8.80;;;;;;;20.30;72.56;101777.81;5042062;28;20179;-77
2021/09/07 09:54:13;;;;;;;13.53;8.40;;;;;;;20.54;73.54;101776.88;5058198;28;20186;-77
2021/09/07 09:56:38;;;;;;;11.47;8.23;;;;;;;19.54;74.39;101770.19;5058626;28;20644;-76
2021/09/07 09:59:06;;;;;;;12.20;8.27;;;;;;;19.80;75.19;101765.50;5058867;28;20167;-76
2021/09/07 10:01:32;;;;;;;12.97;8.43;;;;;;;20.33;72.68;101765.00;5058904;28;20203;-77
2021/09/07 10:04:00;;;;;;;12.20;8.60;;;;;;;21.17;70.60;101776.19;5093273;28;20210;-76
2021/09/07 10:06:26;;;;;;;12.23;6.77;;;;;;;21.43;70.31;101776.78;5079001;28;20167;-76
2021/09/07 10:08:52;;;;;;;11.33;7.20;;;;;;;21.41;69.13;101773.34;5047596;28;20171;-77
2021/09/07 10:11:22;;;;;;;10.77;6.87;;;;;;;21.53;68.22;101772.28;5058793;28;20604;-76
2021/09/07 10:13:50;;;;;;;13.60;6.77;;;;;;;21.57;68.81;101774.78;5057651;28;20253;-76
2021/09/07 10:16:38;;;;;;;11.20;7.20;;;;;;;22.37;65.35;101766.94;5057925;28;20194;-77
2021/09/07 10:19:14;;;;;;;11.50;6.80;;;;;;;22.22;66.58;101768.25;5041834;28;20572;-76
2021/09/07 10:24:19;;;;;;;10.70;6.40;;;;;;;21.05;69.58;101765.50;5057732;28;20210;-76
2021/09/07 10:26:44;;;;;;;11.60;6.30;;;;;;;22.12;66.28;101771.78;5041946;28;20220;-76
2021/09/07 10:29:19;;;;;;;10.00;6.57;;;;;;;22.64;64.46;101764.47;5076021;28;20532;-76
2021/09/07 10:31:49;;;;;;;8.40;6.20;;;;;;;22.28;65.82;101770.44;5058472;28;20159;-76
2021/09/07 10:34:19;;;;;;;9.00;6.90;;;;;;;21.95;65.37;101766.06;5076521;28;20606;-77
2021/09/07 10:37:05;;;;;;;10.90;6.87;;;;;;;21.60;65.17;101763.66;5058259;28;20174;-76
2021/09/07 10:39:33;;;;;;;9.30;5.97;;;;;;;22.34;64.66;101768.06;5058238;28;20161;-77
2021/09/07 10:41:59;;;;;;;7.43;5.07;;;;;;;23.56;61.52;101767.06;5057508;28;20195;-77
2021/09/07 10:44:31;;;;;;;7.93;5.33;;;;;;;23.51;61.06;101759.28;5057271;28;20668;-77
2021/09/07 10:46:57;;;;;;;7.67;5.40;;;;;;;23.24;61.16;101759.09;5040375;28;20217;-76
2021/09/07 10:49:27;;;;;;;11.17;5.53;;;;;;;23.84;59.16;101751.72;5075621;28;20167;-76
2021/09/07 10:52:18;;;;;;;8.90;5.43;;;;;;;23.03;60.96;101751.03;5075260;28;20187;-77
2021/09/07 10:54:50;;;;;;;13.63;6.07;;;;;;;21.75;64.78;101757.75;5056997;28;20183;-77
2021/09/07 10:57:34;;;;;;;13.20;6.13;;;;;;;22.14;64.10;101752.63;5075459;28;20175;-77
2021/09/07 11:00:03;;;;;;;;;;;;;;;24.57;58.32;101758.31;5074872;28;20567;-77
2021/09/07 11:02:41;;;;;;;7.03;4.73;;;;;;;26.59;52.63;101749.53;5057112;28;20763;-76
2021/09/07 11:05:08;;;;;;;7.67;4.60;;;;;;;26.56;50.33;101749.84;5075065;28;20265;-76
2021/09/07 11:07:40;;;;;;;7.63;4.83;;;;;;;26.95;49.93;101751.06;5056764;28;20171;-76